sensor_id;sensor_type;location;lat;lon;timestamp;P1;durP1;ratioP1;P2;durP2;ratioP2
35442;SDS011;21561;55.654;37.592;2023-06-04T00:02:00;7.38;;;1.85;;
35442;SDS011;21561;55.654;37.592;2023-06-04T00:04:27;6.07;;;1.80;;
35442;SDS011;21561;55.654;37.592;2023-06-04T00:06:54;7.03;;;2.00;;
35442;SDS011;21561;55.654;37.592;2023-06-04T00:09:21;4.28;;;1.67;;
35442;SDS011;21561;55.654;37.592;2023-06-04T00:11:48;6.20;;;1.52;;
35442;SDS011;21561;55.654;37.592;2023-06-04T00:14:15;7.13;;;1.85;;
35442;SDS011;21561;55.654;37.592;2023-06-04T00:16:42;7.95;;;2.10;;
35442;SDS011;21561;55.654;37.592;2023-06-04T00:19:09;9.93;;;2.15;;
35442;SDS011;21561;55.654;37.592;2023-06-04T00:21:36;4.38;;;1.60;;
35442;SDS011;21561;55.654;37.592;2023-06-04T00:24:03;5.72;;;1.67;;
35442;SDS011;21561;55.654;37.592;2023-06-04T00:26:30;7.38;;;1.90;;
35442;SDS011;21561;55.654;37.592;2023-06-04T00:28:57;7.13;;;1.90;;
35442;SDS011;21561;55.654;37.592;2023-06-04T00:31:24;11.70;;;2.17;;
35442;SDS011;21561;55.654;37.592;2023-06-04T00:33:51;5.00;;;2.08;;
35442;SDS011;21561;55.654;37.592;2023-06-04T00:36:18;5.53;;;1.65;;
35442;SDS011;21561;55.654;37.592;2023-06-04T00:38:45;8.70;;;2.40;;
35442;SDS011;21561;55.654;37.592;2023-06-04T00:41:12;5.90;;;1.80;;
35442;SDS011;21561;55.654;37.592;2023-06-04T00:43:39;6.03;;;1.88;;
35442;SDS011;21561;55.654;37.592;2023-06-04T00:46:06;5.40;;;1.77;;
35442;SDS011;21561;55.654;37.592;2023-06-04T00:48:33;6.82;;;1.65;;
35442;SDS011;21561;55.654;37.592;2023-06-04T00:51:00;6.82;;;2.10;;
35442;SDS011;21561;55.654;37.592;2023-06-04T00:53:27;6.40;;;1.60;;
35442;SDS011;21561;55.654;37.592;2023-06-04T00:55:54;4.78;;;1.77;;
35442;SDS011;21561;55.654;37.592;2023-06-04T00:58:21;8.70;;;1.98;;
35442;SDS011;21561;55.654;37.592;2023-06-04T01:00:48;6.32;;;1.83;;
35442;SDS011;21561;55.654;37.592;2023-06-04T01:03:18;3.85;;;1.55;;
35442;SDS011;21561;55.654;37.592;2023-06-04T01:08:39;7.00;;;1.80;;
35442;SDS011;21561;55.654;37.592;2023-06-04T01:11:09;6.30;;;1.83;;
35442;SDS011;21561;55.654;37.592;2023-06-04T01:13:36;6.68;;;1.73;;
35442;SDS011;21561;55.654;37.592;2023-06-04T01:16:03;6.03;;;1.70;;
35442;SDS011;21561;55.654;37.592;2023-06-04T01:18:31;4.97;;;1.67;;
35442;SDS011;21561;55.654;37.592;2023-06-04T01:21:04;6.03;;;1.65;;
35442;SDS011;21561;55.654;37.592;2023-06-04T01:23:37;4.15;;;1.52;;
35442;SDS011;21561;55.654;37.592;2023-06-04T01:26:12;5.93;;;1.92;;
35442;SDS011;21561;55.654;37.592;2023-06-04T01:28:40;5.88;;;1.85;;
35442;SDS011;21561;55.654;37.592;2023-06-04T01:31:08;4.63;;;1.73;;
35442;SDS011;21561;55.654;37.592;2023-06-04T01:33:35;3.50;;;1.55;;
35442;SDS011;21561;55.654;37.592;2023-06-04T01:36:02;8.02;;;1.80;;
35442;SDS011;21561;55.654;37.592;2023-06-04T01:38:29;6.05;;;1.52;;
35442;SDS011;21561;55.654;37.592;2023-06-04T01:40:56;7.53;;;1.85;;
35442;SDS011;21561;55.654;37.592;2023-06-04T01:43:28;5.45;;;1.80;;
35442;SDS011;21561;55.654;37.592;2023-06-04T01:45:55;5.60;;;1.80;;
35442;SDS011;21561;55.654;37.592;2023-06-04T01:48:23;7.22;;;1.58;;
35442;SDS011;21561;55.654;37.592;2023-06-04T01:50:50;6.32;;;1.50;;
35442;SDS011;21561;55.654;37.592;2023-06-04T01:53:17;7.70;;;1.98;;
35442;SDS011;21561;55.654;37.592;2023-06-04T01:55:44;4.63;;;1.90;;
35442;SDS011;21561;55.654;37.592;2023-06-04T01:58:11;5.82;;;2.00;;
35442;SDS011;21561;55.654;37.592;2023-06-04T02:00:38;12.02;;;2.08;;
35442;SDS011;21561;55.654;37.592;2023-06-04T02:03:05;8.93;;;1.95;;
35442;SDS011;21561;55.654;37.592;2023-06-04T02:05:32;8.38;;;2.58;;
35442;SDS011;21561;55.654;37.592;2023-06-04T02:07:59;5.85;;;1.95;;
35442;SDS011;21561;55.654;37.592;2023-06-04T02:10:28;5.55;;;1.60;;
35442;SDS011;21561;55.654;37.592;2023-06-04T02:12:56;4.43;;;1.70;;
35442;SDS011;21561;55.654;37.592;2023-06-04T02:15:25;7.88;;;1.92;;
35442;SDS011;21561;55.654;37.592;2023-06-04T02:17:54;6.90;;;1.92;;
35442;SDS011;21561;55.654;37.592;2023-06-04T02:20:27;4.97;;;1.77;;
35442;SDS011;21561;55.654;37.592;2023-06-04T02:22:55;3.83;;;1.88;;
35442;SDS011;21561;55.654;37.592;2023-06-04T02:25:22;6.28;;;2.00;;
35442;SDS011;21561;55.654;37.592;2023-06-04T02:27:50;11.93;;;2.20;;
35442;SDS011;21561;55.654;37.592;2023-06-04T02:30:17;3.88;;;1.60;;
35442;SDS011;21561;55.654;37.592;2023-06-04T02:32:43;5.70;;;2.00;;
35442;SDS011;21561;55.654;37.592;2023-06-04T02:35:17;5.63;;;1.70;;
35442;SDS011;21561;55.654;37.592;2023-06-04T02:37:44;6.57;;;2.00;;
35442;SDS011;21561;55.654;37.592;2023-06-04T02:40:11;9.75;;;1.88;;
35442;SDS011;21561;55.654;37.592;2023-06-04T02:42:38;6.35;;;1.92;;
35442;SDS011;21561;55.654;37.592;2023-06-04T02:45:05;5.85;;;1.80;;
35442;SDS011;21561;55.654;37.592;2023-06-04T02:47:32;8.75;;;1.83;;
35442;SDS011;21561;55.654;37.592;2023-06-04T02:49:59;5.82;;;1.73;;
35442;SDS011;21561;55.654;37.592;2023-06-04T02:52:25;5.95;;;1.83;;
35442;SDS011;21561;55.654;37.592;2023-06-04T02:54:52;6.90;;;1.63;;
35442;SDS011;21561;55.654;37.592;2023-06-04T02:57:19;5.65;;;1.70;;
35442;SDS011;21561;55.654;37.592;2023-06-04T02:59:46;3.80;;;1.55;;
35442;SDS011;21561;55.654;37.592;2023-06-04T03:02:13;3.17;;;1.45;;
35442;SDS011;21561;55.654;37.592;2023-06-04T03:04:41;4.97;;;2.25;;
35442;SDS011;21561;55.654;37.592;2023-06-04T03:07:08;4.22;;;1.38;;
35442;SDS011;21561;55.654;37.592;2023-06-04T03:09:37;5.53;;;1.70;;
35442;SDS011;21561;55.654;37.592;2023-06-04T03:12:04;4.20;;;1.48;;
35442;SDS011;21561;55.654;37.592;2023-06-04T03:14:31;9.80;;;2.15;;
35442;SDS011;21561;55.654;37.592;2023-06-04T03:17:02;5.63;;;1.70;;
35442;SDS011;21561;55.654;37.592;2023-06-04T03:19:37;4.90;;;1.60;;
35442;SDS011;21561;55.654;37.592;2023-06-04T03:22:05;4.28;;;1.50;;
35442;SDS011;21561;55.654;37.592;2023-06-04T03:24:36;5.50;;;1.70;;
35442;SDS011;21561;55.654;37.592;2023-06-04T03:27:05;13.40;;;1.65;;
35442;SDS011;21561;55.654;37.592;2023-06-04T03:29:34;6.03;;;1.70;;
35442;SDS011;21561;55.654;37.592;2023-06-04T03:32:01;5.72;;;1.80;;
35442;SDS011;21561;55.654;37.592;2023-06-04T03:34:29;5.25;;;1.80;;
35442;SDS011;21561;55.654;37.592;2023-06-04T03:37:00;3.20;;;1.40;;
35442;SDS011;21561;55.654;37.592;2023-06-04T03:39:27;4.88;;;1.70;;
35442;SDS011;21561;55.654;37.592;2023-06-04T03:41:54;6.50;;;1.80;;
35442;SDS011;21561;55.654;37.592;2023-06-04T03:44:21;4.38;;;1.85;;
35442;SDS011;21561;55.654;37.592;2023-06-04T03:46:48;4.05;;;1.55;;
35442;SDS011;21561;55.654;37.592;2023-06-04T03:49:15;8.60;;;2.05;;
35442;SDS011;21561;55.654;37.592;2023-06-04T03:51:43;7.97;;;1.60;;
35442;SDS011;21561;55.654;37.592;2023-06-04T03:54:10;5.68;;;1.48;;
35442;SDS011;21561;55.654;37.592;2023-06-04T03:56:38;6.53;;;1.58;;
35442;SDS011;21561;55.654;37.592;2023-06-04T03:59:05;4.50;;;1.30;;
35442;SDS011;21561;55.654;37.592;2023-06-04T04:01:32;3.50;;;1.40;;
35442;SDS011;21561;55.654;37.592;2023-06-04T04:04:00;4.03;;;2.05;;
35442;SDS011;21561;55.654;37.592;2023-06-04T04:06:27;5.43;;;1.65;;
35442;SDS011;21561;55.654;37.592;2023-06-04T04:08:54;2.75;;;1.20;;
35442;SDS011;21561;55.654;37.592;2023-06-04T04:11:21;5.72;;;1.70;;
35442;SDS011;21561;55.654;37.592;2023-06-04T04:13:48;4.65;;;1.80;;
35442;SDS011;21561;55.654;37.592;2023-06-04T04:16:15;5.30;;;1.67;;
35442;SDS011;21561;55.654;37.592;2023-06-04T04:18:42;4.15;;;1.45;;
35442;SDS011;21561;55.654;37.592;2023-06-04T04:21:10;3.13;;;1.52;;
35442;SDS011;21561;55.654;37.592;2023-06-04T04:23:38;4.13;;;1.60;;
35442;SDS011;21561;55.654;37.592;2023-06-04T04:26:09;3.25;;;1.58;;
35442;SDS011;21561;55.654;37.592;2023-06-04T04:28:43;5.38;;;1.70;;
35442;SDS011;21561;55.654;37.592;2023-06-04T04:31:10;4.55;;;1.50;;
35442;SDS011;21561;55.654;37.592;2023-06-04T04:33:37;5.15;;;1.50;;
35442;SDS011;21561;55.654;37.592;2023-06-04T04:36:06;4.70;;;1.63;;
35442;SDS011;21561;55.654;37.592;2023-06-04T04:38:39;4.35;;;1.50;;
35442;SDS011;21561;55.654;37.592;2023-06-04T04:41:07;5.10;;;1.45;;
35442;SDS011;21561;55.654;37.592;2023-06-04T04:43:35;2.70;;;1.45;;
35442;SDS011;21561;55.654;37.592;2023-06-04T04:46:05;2.85;;;1.60;;
35442;SDS011;21561;55.654;37.592;2023-06-04T04:48:32;5.25;;;1.40;;
35442;SDS011;21561;55.654;37.592;2023-06-04T04:50:59;3.90;;;1.50;;
35442;SDS011;21561;55.654;37.592;2023-06-04T04:53:26;2.85;;;1.23;;
35442;SDS011;21561;55.654;37.592;2023-06-04T04:55:54;4.93;;;1.63;;
35442;SDS011;21561;55.654;37.592;2023-06-04T04:58:21;3.75;;;1.38;;
35442;SDS011;21561;55.654;37.592;2023-06-04T05:00:48;6.80;;;1.40;;
35442;SDS011;21561;55.654;37.592;2023-06-04T05:03:15;3.78;;;1.50;;
35442;SDS011;21561;55.654;37.592;2023-06-04T05:05:42;5.45;;;1.40;;
35442;SDS011;21561;55.654;37.592;2023-06-04T05:08:09;7.45;;;1.70;;
35442;SDS011;21561;55.654;37.592;2023-06-04T05:10:36;3.10;;;1.50;;
35442;SDS011;21561;55.654;37.592;2023-06-04T05:13:03;5.63;;;1.40;;
35442;SDS011;21561;55.654;37.592;2023-06-04T05:15:32;4.72;;;1.33;;
35442;SDS011;21561;55.654;37.592;2023-06-04T05:17:59;7.43;;;1.67;;
35442;SDS011;21561;55.654;37.592;2023-06-04T05:20:30;1.92;;;1.13;;
35442;SDS011;21561;55.654;37.592;2023-06-04T05:22:57;2.15;;;1.17;;
35442;SDS011;21561;55.654;37.592;2023-06-04T05:25:23;2.92;;;1.30;;
35442;SDS011;21561;55.654;37.592;2023-06-04T05:27:50;2.65;;;1.20;;
35442;SDS011;21561;55.654;37.592;2023-06-04T05:30:17;5.50;;;1.50;;
35442;SDS011;21561;55.654;37.592;2023-06-04T05:32:44;2.90;;;1.17;;
35442;SDS011;21561;55.654;37.592;2023-06-04T05:35:11;2.20;;;1.08;;
35442;SDS011;21561;55.654;37.592;2023-06-04T05:37:38;2.83;;;1.10;;
35442;SDS011;21561;55.654;37.592;2023-06-04T05:40:07;2.92;;;1.10;;
35442;SDS011;21561;55.654;37.592;2023-06-04T05:42:35;4.50;;;1.30;;
35442;SDS011;21561;55.654;37.592;2023-06-04T05:45:02;4.15;;;1.50;;
35442;SDS011;21561;55.654;37.592;2023-06-04T05:47:30;2.83;;;1.23;;
35442;SDS011;21561;55.654;37.592;2023-06-04T05:49:57;2.67;;;0.90;;
35442;SDS011;21561;55.654;37.592;2023-06-04T05:52:24;3.38;;;1.30;;
35442;SDS011;21561;55.654;37.592;2023-06-04T05:54:51;3.95;;;1.15;;
35442;SDS011;21561;55.654;37.592;2023-06-04T05:57:19;2.65;;;1.15;;
35442;SDS011;21561;55.654;37.592;2023-06-04T05:59:47;5.65;;;1.38;;
35442;SDS011;21561;55.654;37.592;2023-06-04T06:02:13;3.50;;;1.13;;
35442;SDS011;21561;55.654;37.592;2023-06-04T06:04:41;2.83;;;0.98;;
35442;SDS011;21561;55.654;37.592;2023-06-04T06:07:08;3.20;;;1.17;;
35442;SDS011;21561;55.654;37.592;2023-06-04T06:09:35;3.28;;;1.27;;
35442;SDS011;21561;55.654;37.592;2023-06-04T06:12:02;5.97;;;1.40;;
35442;SDS011;21561;55.654;37.592;2023-06-04T06:14:29;3.13;;;1.08;;
35442;SDS011;21561;55.654;37.592;2023-06-04T06:16:56;4.00;;;1.30;;
35442;SDS011;21561;55.654;37.592;2023-06-04T06:19:23;2.65;;;0.98;;
35442;SDS011;21561;55.654;37.592;2023-06-04T06:21:50;3.47;;;1.25;;
35442;SDS011;21561;55.654;37.592;2023-06-04T06:24:17;5.57;;;1.10;;
35442;SDS011;21561;55.654;37.592;2023-06-04T06:26:43;2.60;;;0.90;;
35442;SDS011;21561;55.654;37.592;2023-06-04T06:29:10;3.15;;;1.05;;
35442;SDS011;21561;55.654;37.592;2023-06-04T06:31:37;1.75;;;1.10;;
35442;SDS011;21561;55.654;37.592;2023-06-04T06:34:04;4.15;;;1.45;;
35442;SDS011;21561;55.654;37.592;2023-06-04T06:36:31;9.18;;;1.77;;
35442;SDS011;21561;55.654;37.592;2023-06-04T06:38:59;2.15;;;1.10;;
35442;SDS011;21561;55.654;37.592;2023-06-04T06:41:26;3.75;;;1.45;;
35442;SDS011;21561;55.654;37.592;2023-06-04T06:43:53;3.95;;;1.20;;
35442;SDS011;21561;55.654;37.592;2023-06-04T06:46:20;6.53;;;1.15;;
35442;SDS011;21561;55.654;37.592;2023-06-04T06:48:47;4.60;;;1.45;;
35442;SDS011;21561;55.654;37.592;2023-06-04T06:51:14;3.83;;;1.20;;
35442;SDS011;21561;55.654;37.592;2023-06-04T06:53:41;3.13;;;1.23;;
35442;SDS011;21561;55.654;37.592;2023-06-04T06:56:09;2.00;;;1.20;;
35442;SDS011;21561;55.654;37.592;2023-06-04T06:58:36;4.82;;;1.30;;
35442;SDS011;21561;55.654;37.592;2023-06-04T07:01:03;4.63;;;1.35;;
35442;SDS011;21561;55.654;37.592;2023-06-04T07:03:30;2.85;;;1.13;;
35442;SDS011;21561;55.654;37.592;2023-06-04T07:05:57;2.50;;;0.85;;
35442;SDS011;21561;55.654;37.592;2023-06-04T07:08:24;2.13;;;1.05;;
35442;SDS011;21561;55.654;37.592;2023-06-04T07:10:52;3.80;;;1.00;;
35442;SDS011;21561;55.654;37.592;2023-06-04T07:13:18;1.73;;;0.95;;
35442;SDS011;21561;55.654;37.592;2023-06-04T07:15:46;3.30;;;1.08;;
35442;SDS011;21561;55.654;37.592;2023-06-04T07:18:13;3.00;;;1.15;;
35442;SDS011;21561;55.654;37.592;2023-06-04T07:20:40;1.40;;;0.85;;
35442;SDS011;21561;55.654;37.592;2023-06-04T07:23:06;1.25;;;0.88;;
35442;SDS011;21561;55.654;37.592;2023-06-04T07:25:33;2.15;;;0.80;;
35442;SDS011;21561;55.654;37.592;2023-06-04T07:28:01;1.65;;;1.00;;
35442;SDS011;21561;55.654;37.592;2023-06-04T07:30:30;3.00;;;1.00;;
35442;SDS011;21561;55.654;37.592;2023-06-04T07:33:00;3.72;;;1.10;;
35442;SDS011;21561;55.654;37.592;2023-06-04T07:35:27;2.22;;;0.98;;
35442;SDS011;21561;55.654;37.592;2023-06-04T07:37:54;2.22;;;0.90;;
35442;SDS011;21561;55.654;37.592;2023-06-04T07:40:20;1.55;;;0.90;;
35442;SDS011;21561;55.654;37.592;2023-06-04T07:42:47;4.82;;;1.38;;
35442;SDS011;21561;55.654;37.592;2023-06-04T07:45:15;2.83;;;0.90;;
35442;SDS011;21561;55.654;37.592;2023-06-04T07:47:44;2.00;;;1.13;;
35442;SDS011;21561;55.654;37.592;2023-06-04T07:50:11;3.75;;;1.20;;
35442;SDS011;21561;55.654;37.592;2023-06-04T07:52:38;3.95;;;1.10;;
35442;SDS011;21561;55.654;37.592;2023-06-04T07:55:05;7.28;;;1.17;;
35442;SDS011;21561;55.654;37.592;2023-06-04T07:57:34;5.18;;;1.45;;
35442;SDS011;21561;55.654;37.592;2023-06-04T08:00:02;1.83;;;0.95;;
35442;SDS011;21561;55.654;37.592;2023-06-04T08:02:31;1.60;;;0.88;;
35442;SDS011;21561;55.654;37.592;2023-06-04T08:04:58;2.90;;;1.13;;
35442;SDS011;21561;55.654;37.592;2023-06-04T08:07:25;4.85;;;1.05;;
35442;SDS011;21561;55.654;37.592;2023-06-04T08:09:52;4.00;;;1.23;;
35442;SDS011;21561;55.654;37.592;2023-06-04T08:12:18;2.20;;;1.00;;
35442;SDS011;21561;55.654;37.592;2023-06-04T08:14:46;3.10;;;1.17;;
35442;SDS011;21561;55.654;37.592;2023-06-04T08:17:13;3.00;;;1.17;;
35442;SDS011;21561;55.654;37.592;2023-06-04T08:19:43;3.80;;;1.33;;
35442;SDS011;21561;55.654;37.592;2023-06-04T08:22:30;7.25;;;1.63;;
35442;SDS011;21561;55.654;37.592;2023-06-04T08:25:00;8.43;;;1.75;;
35442;SDS011;21561;55.654;37.592;2023-06-04T08:27:47;4.63;;;1.10;;
35442;SDS011;21561;55.654;37.592;2023-06-04T08:30:35;1.95;;;1.10;;
35442;SDS011;21561;55.654;37.592;2023-06-04T08:33:06;5.63;;;1.45;;
35442;SDS011;21561;55.654;37.592;2023-06-04T08:35:39;3.17;;;1.17;;
35442;SDS011;21561;55.654;37.592;2023-06-04T08:38:06;2.47;;;1.10;;
35442;SDS011;21561;55.654;37.592;2023-06-04T08:40:33;3.60;;;1.00;;
35442;SDS011;21561;55.654;37.592;2023-06-04T08:43:01;5.72;;;1.13;;
35442;SDS011;21561;55.654;37.592;2023-06-04T08:45:28;3.60;;;1.20;;
35442;SDS011;21561;55.654;37.592;2023-06-04T08:47:59;2.85;;;1.42;;
35442;SDS011;21561;55.654;37.592;2023-06-04T08:50:27;4.80;;;1.40;;
35442;SDS011;21561;55.654;37.592;2023-06-04T08:52:54;3.10;;;1.40;;
35442;SDS011;21561;55.654;37.592;2023-06-04T08:55:22;5.40;;;1.30;;
35442;SDS011;21561;55.654;37.592;2023-06-04T08:57:50;3.47;;;1.23;;
35442;SDS011;21561;55.654;37.592;2023-06-04T09:00:20;2.83;;;1.50;;
35442;SDS011;21561;55.654;37.592;2023-06-04T09:02:47;4.25;;;1.40;;
35442;SDS011;21561;55.654;37.592;2023-06-04T09:05:20;8.90;;;1.40;;
35442;SDS011;21561;55.654;37.592;2023-06-04T09:07:52;3.97;;;1.50;;
35442;SDS011;21561;55.654;37.592;2023-06-04T09:10:23;3.55;;;1.40;;
35442;SDS011;21561;55.654;37.592;2023-06-04T09:12:54;4.38;;;1.40;;
35442;SDS011;21561;55.654;37.592;2023-06-04T09:15:24;2.20;;;1.10;;
35442;SDS011;21561;55.654;37.592;2023-06-04T09:17:51;3.38;;;1.35;;
35442;SDS011;21561;55.654;37.592;2023-06-04T09:20:18;3.88;;;1.10;;
35442;SDS011;21561;55.654;37.592;2023-06-04T09:22:48;4.32;;;1.20;;
35442;SDS011;21561;55.654;37.592;2023-06-04T09:25:25;4.80;;;1.48;;
35442;SDS011;21561;55.654;37.592;2023-06-04T09:27:54;7.70;;;1.13;;
35442;SDS011;21561;55.654;37.592;2023-06-04T09:30:23;1.23;;;0.90;;
35442;SDS011;21561;55.654;37.592;2023-06-04T09:32:50;3.05;;;1.02;;
35442;SDS011;21561;55.654;37.592;2023-06-04T09:35:19;2.17;;;1.17;;
35442;SDS011;21561;55.654;37.592;2023-06-04T09:37:56;3.45;;;1.10;;
35442;SDS011;21561;55.654;37.592;2023-06-04T09:40:23;4.28;;;1.42;;
35442;SDS011;21561;55.654;37.592;2023-06-04T09:42:50;3.42;;;1.17;;
35442;SDS011;21561;55.654;37.592;2023-06-04T09:45:31;2.83;;;1.20;;
35442;SDS011;21561;55.654;37.592;2023-06-04T09:48:02;5.85;;;1.70;;
35442;SDS011;21561;55.654;37.592;2023-06-04T09:50:35;5.07;;;1.38;;
35442;SDS011;21561;55.654;37.592;2023-06-04T09:53:12;2.15;;;1.10;;
35442;SDS011;21561;55.654;37.592;2023-06-04T09:55:58;3.08;;;1.35;;
35442;SDS011;21561;55.654;37.592;2023-06-04T09:58:27;5.13;;;1.25;;
35442;SDS011;21561;55.654;37.592;2023-06-04T10:00:55;4.35;;;1.20;;
35442;SDS011;21561;55.654;37.592;2023-06-04T10:03:30;4.07;;;1.10;;
35442;SDS011;21561;55.654;37.592;2023-06-04T10:06:00;3.15;;;1.30;;
35442;SDS011;21561;55.654;37.592;2023-06-04T10:08:29;4.15;;;1.15;;
35442;SDS011;21561;55.654;37.592;2023-06-04T10:11:01;4.30;;;1.40;;
35442;SDS011;21561;55.654;37.592;2023-06-04T10:13:29;5.18;;;1.63;;
35442;SDS011;21561;55.654;37.592;2023-06-04T10:15:57;2.17;;;1.20;;
35442;SDS011;21561;55.654;37.592;2023-06-04T10:18:26;3.40;;;1.30;;
35442;SDS011;21561;55.654;37.592;2023-06-04T10:20:55;3.22;;;1.10;;
35442;SDS011;21561;55.654;37.592;2023-06-04T10:23:23;3.90;;;1.52;;
35442;SDS011;21561;55.654;37.592;2023-06-04T10:25:51;3.45;;;1.30;;
35442;SDS011;21561;55.654;37.592;2023-06-04T10:28:19;5.15;;;1.52;;
35442;SDS011;21561;55.654;37.592;2023-06-04T10:30:47;3.55;;;1.38;;
35442;SDS011;21561;55.654;37.592;2023-06-04T10:33:17;4.60;;;1.30;;
35442;SDS011;21561;55.654;37.592;2023-06-04T10:35:46;4.25;;;1.50;;
35442;SDS011;21561;55.654;37.592;2023-06-04T10:38:13;4.35;;;1.52;;
35442;SDS011;21561;55.654;37.592;2023-06-04T10:40:42;3.55;;;1.58;;
35442;SDS011;21561;55.654;37.592;2023-06-04T10:43:11;4.70;;;1.25;;
35442;SDS011;21561;55.654;37.592;2023-06-04T10:45:39;3.55;;;1.52;;
35442;SDS011;21561;55.654;37.592;2023-06-04T10:48:07;5.25;;;1.55;;
35442;SDS011;21561;55.654;37.592;2023-06-04T10:50:36;4.45;;;1.60;;
35442;SDS011;21561;55.654;37.592;2023-06-04T10:53:22;3.90;;;1.27;;
35442;SDS011;21561;55.654;37.592;2023-06-04T10:55:49;3.88;;;1.63;;
35442;SDS011;21561;55.654;37.592;2023-06-04T10:58:16;8.10;;;1.65;;
35442;SDS011;21561;55.654;37.592;2023-06-04T11:00:45;3.63;;;1.35;;
35442;SDS011;21561;55.654;37.592;2023-06-04T11:03:13;3.20;;;1.58;;
35442;SDS011;21561;55.654;37.592;2023-06-04T11:05:41;3.40;;;1.20;;
35442;SDS011;21561;55.654;37.592;2023-06-04T11:08:10;5.35;;;1.55;;
35442;SDS011;21561;55.654;37.592;2023-06-04T11:10:38;4.32;;;1.23;;
35442;SDS011;21561;55.654;37.592;2023-06-04T11:13:07;4.07;;;1.42;;
35442;SDS011;21561;55.654;37.592;2023-06-04T11:15:40;5.68;;;1.67;;
35442;SDS011;21561;55.654;37.592;2023-06-04T11:18:13;6.28;;;1.20;;
35442;SDS011;21561;55.654;37.592;2023-06-04T11:20:41;4.38;;;1.63;;
35442;SDS011;21561;55.654;37.592;2023-06-04T11:23:11;4.68;;;1.70;;
35442;SDS011;21561;55.654;37.592;2023-06-04T11:25:38;3.65;;;1.50;;
35442;SDS011;21561;55.654;37.592;2023-06-04T11:28:06;4.97;;;1.55;;
35442;SDS011;21561;55.654;37.592;2023-06-04T11:30:32;4.45;;;1.52;;
35442;SDS011;21561;55.654;37.592;2023-06-04T11:33:00;6.10;;;1.77;;
35442;SDS011;21561;55.654;37.592;2023-06-04T11:35:38;4.10;;;1.50;;
35442;SDS011;21561;55.654;37.592;2023-06-04T11:38:08;7.75;;;1.73;;
35442;SDS011;21561;55.654;37.592;2023-06-04T11:40:36;3.33;;;1.50;;
35442;SDS011;21561;55.654;37.592;2023-06-04T11:43:03;6.65;;;1.50;;
35442;SDS011;21561;55.654;37.592;2023-06-04T11:45:30;6.32;;;1.38;;
35442;SDS011;21561;55.654;37.592;2023-06-04T11:47:57;4.22;;;1.52;;
35442;SDS011;21561;55.654;37.592;2023-06-04T11:50:27;4.35;;;1.42;;
35442;SDS011;21561;55.654;37.592;2023-06-04T11:52:55;7.67;;;1.50;;
35442;SDS011;21561;55.654;37.592;2023-06-04T11:55:22;4.10;;;1.40;;
35442;SDS011;21561;55.654;37.592;2023-06-04T11:57:50;6.95;;;1.63;;
35442;SDS011;21561;55.654;37.592;2023-06-04T12:00:17;2.83;;;1.38;;
35442;SDS011;21561;55.654;37.592;2023-06-04T12:02:52;5.70;;;1.58;;
35442;SDS011;21561;55.654;37.592;2023-06-04T12:05:22;4.38;;;1.20;;
35442;SDS011;21561;55.654;37.592;2023-06-04T12:07:50;7.10;;;1.70;;
35442;SDS011;21561;55.654;37.592;2023-06-04T12:10:18;4.55;;;1.63;;
35442;SDS011;21561;55.654;37.592;2023-06-04T12:12:46;3.75;;;1.45;;
35442;SDS011;21561;55.654;37.592;2023-06-04T12:15:20;4.15;;;1.80;;
35442;SDS011;21561;55.654;37.592;2023-06-04T12:17:49;4.35;;;1.38;;
35442;SDS011;21561;55.654;37.592;2023-06-04T12:20:18;4.60;;;1.63;;
35442;SDS011;21561;55.654;37.592;2023-06-04T12:22:57;4.72;;;1.48;;
35442;SDS011;21561;55.654;37.592;2023-06-04T12:25:24;3.72;;;1.65;;
35442;SDS011;21561;55.654;37.592;2023-06-04T12:27:52;4.85;;;1.40;;
35442;SDS011;21561;55.654;37.592;2023-06-04T12:30:19;4.65;;;1.35;;
35442;SDS011;21561;55.654;37.592;2023-06-04T12:32:47;4.57;;;1.70;;
35442;SDS011;21561;55.654;37.592;2023-06-04T12:35:14;3.45;;;1.30;;
35442;SDS011;21561;55.654;37.592;2023-06-04T12:37:42;6.32;;;1.75;;
35442;SDS011;21561;55.654;37.592;2023-06-04T12:40:09;5.75;;;1.50;;
35442;SDS011;21561;55.654;37.592;2023-06-04T12:42:36;4.38;;;1.33;;
35442;SDS011;21561;55.654;37.592;2023-06-04T12:45:03;6.28;;;1.38;;
35442;SDS011;21561;55.654;37.592;2023-06-04T12:47:31;6.05;;;1.25;;
35442;SDS011;21561;55.654;37.592;2023-06-04T12:49:58;4.43;;;1.38;;
35442;SDS011;21561;55.654;37.592;2023-06-04T12:52:24;5.28;;;1.52;;
35442;SDS011;21561;55.654;37.592;2023-06-04T12:54:51;4.32;;;1.13;;
35442;SDS011;21561;55.654;37.592;2023-06-04T12:57:18;3.92;;;1.48;;
35442;SDS011;21561;55.654;37.592;2023-06-04T12:59:45;4.10;;;1.42;;
35442;SDS011;21561;55.654;37.592;2023-06-04T13:02:12;4.70;;;1.70;;
35442;SDS011;21561;55.654;37.592;2023-06-04T13:04:38;6.15;;;1.58;;
35442;SDS011;21561;55.654;37.592;2023-06-04T13:07:07;4.50;;;1.50;;
35442;SDS011;21561;55.654;37.592;2023-06-04T13:09:34;4.45;;;1.23;;
35442;SDS011;21561;55.654;37.592;2023-06-04T13:12:01;5.00;;;1.27;;
35442;SDS011;21561;55.654;37.592;2023-06-04T13:14:29;7.72;;;1.67;;
35442;SDS011;21561;55.654;37.592;2023-06-04T13:16:59;3.13;;;1.50;;
35442;SDS011;21561;55.654;37.592;2023-06-04T13:19:39;6.90;;;1.55;;
35442;SDS011;21561;55.654;37.592;2023-06-04T13:22:06;3.92;;;1.50;;
35442;SDS011;21561;55.654;37.592;2023-06-04T13:24:33;4.07;;;1.50;;
35442;SDS011;21561;55.654;37.592;2023-06-04T13:27:00;4.20;;;1.58;;
35442;SDS011;21561;55.654;37.592;2023-06-04T13:29:27;9.15;;;1.42;;
35442;SDS011;21561;55.654;37.592;2023-06-04T13:31:53;3.97;;;1.25;;
35442;SDS011;21561;55.654;37.592;2023-06-04T13:34:21;5.60;;;1.50;;
35442;SDS011;21561;55.654;37.592;2023-06-04T13:36:54;5.35;;;1.70;;
35442;SDS011;21561;55.654;37.592;2023-06-04T13:39:21;5.43;;;1.77;;
35442;SDS011;21561;55.654;37.592;2023-06-04T13:41:49;7.30;;;1.67;;
35442;SDS011;21561;55.654;37.592;2023-06-04T13:44:15;3.70;;;1.50;;
35442;SDS011;21561;55.654;37.592;2023-06-04T13:46:42;2.95;;;1.40;;
35442;SDS011;21561;55.654;37.592;2023-06-04T13:49:09;4.15;;;1.48;;
35442;SDS011;21561;55.654;37.592;2023-06-04T13:51:36;4.55;;;1.63;;
35442;SDS011;21561;55.654;37.592;2023-06-04T13:54:03;6.15;;;1.42;;
35442;SDS011;21561;55.654;37.592;2023-06-04T13:56:30;3.40;;;1.50;;
35442;SDS011;21561;55.654;37.592;2023-06-04T13:58:57;5.28;;;1.33;;
35442;SDS011;21561;55.654;37.592;2023-06-04T14:01:23;7.22;;;1.70;;
35442;SDS011;21561;55.654;37.592;2023-06-04T14:03:51;3.28;;;1.48;;
35442;SDS011;21561;55.654;37.592;2023-06-04T14:06:19;5.72;;;1.70;;
35442;SDS011;21561;55.654;37.592;2023-06-04T14:08:46;5.05;;;1.60;;
35442;SDS011;21561;55.654;37.592;2023-06-04T14:11:12;4.90;;;1.48;;
35442;SDS011;21561;55.654;37.592;2023-06-04T14:13:39;4.57;;;1.50;;
35442;SDS011;21561;55.654;37.592;2023-06-04T14:16:07;5.75;;;1.52;;
35442;SDS011;21561;55.654;37.592;2023-06-04T14:18:34;4.45;;;1.50;;
35442;SDS011;21561;55.654;37.592;2023-06-04T14:21:01;3.65;;;1.42;;
35442;SDS011;21561;55.654;37.592;2023-06-04T14:23:28;8.07;;;1.63;;
35442;SDS011;21561;55.654;37.592;2023-06-04T14:25:55;4.03;;;1.23;;
35442;SDS011;21561;55.654;37.592;2023-06-04T14:28:21;4.38;;;1.42;;
35442;SDS011;21561;55.654;37.592;2023-06-04T14:30:49;4.18;;;1.50;;
35442;SDS011;21561;55.654;37.592;2023-06-04T14:33:16;4.32;;;1.40;;
35442;SDS011;21561;55.654;37.592;2023-06-04T14:35:42;9.07;;;1.73;;
35442;SDS011;21561;55.654;37.592;2023-06-04T14:38:13;3.60;;;1.50;;
35442;SDS011;21561;55.654;37.592;2023-06-04T14:40:42;7.13;;;1.73;;
35442;SDS011;21561;55.654;37.592;2023-06-04T14:43:13;5.82;;;1.70;;